createdAt,value
2019-02-21T00:02:30.646Z,15.50
2019-02-21T00:05:11.263Z,16.37
2019-02-21T00:07:52.105Z,14.80
2019-02-21T00:10:33.666Z,14.80
2019-02-21T00:13:15.369Z,17.00
2019-02-21T00:15:56.921Z,15.87
2019-02-21T00:18:37.974Z,14.70
2019-02-21T00:21:18.860Z,15.60
2019-02-21T00:23:59.810Z,15.47
2019-02-21T00:26:40.742Z,13.40
2019-02-21T00:29:21.304Z,16.60
2019-02-21T00:32:01.826Z,15.57
2019-02-21T00:34:42.716Z,17.20
2019-02-21T00:37:23.757Z,16.20
2019-02-21T00:40:04.451Z,16.70
2019-02-21T00:42:45.441Z,16.90
2019-02-21T00:48:15.945Z,17.33
2019-02-21T00:50:57.549Z,15.43
2019-02-21T00:53:39.624Z,16.13
2019-02-21T00:56:20.489Z,15.83
2019-02-21T00:59:02.083Z,17.60
2019-02-21T01:01:45.812Z,17.47
2019-02-21T01:04:27.072Z,16.50
2019-02-21T01:07:08.801Z,16.60
2019-02-21T01:09:50.019Z,17.53
2019-02-21T01:12:31.564Z,16.67
2019-02-21T01:15:13.215Z,16.40
2019-02-21T01:17:54.187Z,17.10
2019-02-21T01:20:35.485Z,17.63
2019-02-21T01:23:16.719Z,17.97
2019-02-21T01:25:58.885Z,18.50
2019-02-21T01:28:40.379Z,15.80
2019-02-21T01:31:22.153Z,17.03
2019-02-21T01:34:03.792Z,17.90
2019-02-21T01:36:44.525Z,15.20
2019-02-21T01:39:26.635Z,15.80
2019-02-21T01:42:07.754Z,18.03
2019-02-21T01:44:49.411Z,17.67
2019-02-21T01:47:30.484Z,17.27
2019-02-21T01:50:11.248Z,17.10
2019-02-21T01:52:52.546Z,17.80
2019-02-21T01:55:34.291Z,17.27
2019-02-21T02:01:08.015Z,17.63
2019-02-21T02:03:43.026Z,17.13
2019-02-21T02:06:24.140Z,18.43
2019-02-21T02:09:07.806Z,17.30
2019-02-21T02:11:49.508Z,18.57
2019-02-21T02:14:31.234Z,15.80
2019-02-21T02:17:12.490Z,18.80
2019-02-21T02:19:53.894Z,16.37
2019-02-21T02:22:35.558Z,16.30
2019-02-21T02:25:17.194Z,17.67
2019-02-21T02:27:58.542Z,17.43
2019-02-21T02:30:39.876Z,16.27
2019-02-21T02:33:21.306Z,17.57
2019-02-21T02:36:02.439Z,18.83
2019-02-21T02:38:43.894Z,17.13
2019-02-21T02:41:24.528Z,16.77
2019-02-21T02:44:05.734Z,18.33
2019-02-21T02:46:46.913Z,17.27
2019-02-21T02:49:28.059Z,17.27
2019-02-21T02:52:09.418Z,15.40
2019-02-21T02:54:50.437Z,17.80
2019-02-21T02:57:31.368Z,17.55
2019-02-21T03:00:12.490Z,16.90
2019-02-21T03:02:56.689Z,16.50
2019-02-21T03:05:38.111Z,17.90
2019-02-21T03:08:19.327Z,16.60
2019-02-21T03:11:00.925Z,17.50
2019-02-21T03:13:42.507Z,16.90
2019-02-21T03:16:23.751Z,15.60
2019-02-21T03:19:04.587Z,16.80
2019-02-21T03:21:45.948Z,17.20
2019-02-21T03:24:26.887Z,17.07
2019-02-21T03:27:08.203Z,14.70
2019-02-21T03:29:49.416Z,17.80
2019-02-21T03:32:30.710Z,17.10
2019-02-21T03:37:55.899Z,16.47
2019-02-21T03:40:37.769Z,16.30
2019-02-21T03:43:20.295Z,16.30
2019-02-21T03:46:01.095Z,16.17
2019-02-21T03:48:42.457Z,16.35
2019-02-21T03:51:23.698Z,16.90
2019-02-21T03:54:04.875Z,18.90
2019-02-21T03:56:46.414Z,15.80
2019-02-21T03:59:27.887Z,16.13
2019-02-21T04:02:08.336Z,16.77
2019-02-21T04:04:49.108Z,17.83
2019-02-21T04:07:29.857Z,15.90
2019-02-21T04:10:11.034Z,16.83
2019-02-21T04:12:52.435Z,17.63
2019-02-21T04:15:33.945Z,16.33
2019-02-21T04:21:00.069Z,17.50
2019-02-21T04:23:41.711Z,19.90
2019-02-21T04:26:22.879Z,17.17
2019-02-21T04:29:06.982Z,18.63
2019-02-21T04:31:48.232Z,16.93
2019-02-21T04:34:29.204Z,17.13
2019-02-21T04:37:10.499Z,16.40
2019-02-21T04:39:51.617Z,16.50
2019-02-21T04:42:33.174Z,17.00
2019-02-21T04:45:13.821Z,18.20
2019-02-21T04:47:54.912Z,18.40
2019-02-21T04:50:36.117Z,18.33
2019-02-21T04:53:17.094Z,19.87
2019-02-21T04:55:58.193Z,22.67
2019-02-21T04:58:39.564Z,16.90
2019-02-21T05:01:20.468Z,14.30
2019-02-21T05:04:01.680Z,17.50
2019-02-21T05:06:42.674Z,16.80
2019-02-21T05:09:23.780Z,15.40
2019-02-21T05:12:05.206Z,16.53
2019-02-21T05:14:46.127Z,15.47
2019-02-21T05:17:27.983Z,14.93
2019-02-21T05:20:09.593Z,14.67
2019-02-21T05:22:51.185Z,14.87
2019-02-21T05:25:32.343Z,14.53
2019-02-21T05:31:37.489Z,16.90
2019-02-21T05:34:20.322Z,15.03
2019-02-21T05:37:03.143Z,17.10
2019-02-21T05:45:43.248Z,19.13
2019-02-21T05:48:26.066Z,17.07
2019-02-21T05:54:35.600Z,16.73
2019-02-21T05:57:18.401Z,20.50
2019-02-21T06:00:03.533Z,20.10
2019-02-21T06:02:53.370Z,18.10
2019-02-21T06:05:36.581Z,20.10
2019-02-21T06:11:23.969Z,18.80
2019-02-21T06:16:49.364Z,19.20
2019-02-21T06:19:35.459Z,17.70
2019-02-21T06:22:17.827Z,19.50
2019-02-21T06:25:00.516Z,22.25
2019-02-21T06:30:45.714Z,20.00
2019-02-21T06:33:28.345Z,19.70
2019-02-21T06:36:08.992Z,20.85
2019-02-21T06:38:50.428Z,20.60
2019-02-21T06:41:22.845Z,21.85
2019-02-21T06:44:11.569Z,19.30
2019-02-21T06:47:19.291Z,20.60
2019-02-21T06:52:55.005Z,20.60
2019-02-21T06:55:43.542Z,20.80
2019-02-21T06:58:32.117Z,21.10
2019-02-21T07:01:29.091Z,22.03
2019-02-21T07:04:13.418Z,20.17
2019-02-21T07:07:01.230Z,20.60
2019-02-21T07:09:49.145Z,21.30
2019-02-21T07:12:30.149Z,21.00
2019-02-21T07:15:10.831Z,20.30
2019-02-21T07:17:51.787Z,20.70
2019-02-21T07:20:32.438Z,23.20
2019-02-21T07:23:13.731Z,20.90
2019-02-21T07:25:59.387Z,20.30
2019-02-21T07:28:41.663Z,21.90
2019-02-21T07:31:28.908Z,20.40
2019-02-21T07:34:07.036Z,21.40
2019-02-21T07:36:50.021Z,22.80
2019-02-21T07:39:36.013Z,20.70
2019-02-21T07:42:13.575Z,23.53
2019-02-21T07:44:54.723Z,21.47
2019-02-21T07:47:35.488Z,22.00
2019-02-21T07:50:17.103Z,22.30
2019-02-21T07:53:02.506Z,22.45
2019-02-21T07:55:41.333Z,20.55
2019-02-21T07:58:22.193Z,22.57
2019-02-21T08:01:05.205Z,21.40
2019-02-21T08:03:48.957Z,20.07
2019-02-21T08:06:30.116Z,21.63
2019-02-21T08:09:11.052Z,20.83
2019-02-21T08:11:53.142Z,22.50
2019-02-21T08:14:34.139Z,20.97
2019-02-21T08:17:16.266Z,21.95
2019-02-21T08:20:07.811Z,21.20
2019-02-21T08:22:41.073Z,20.47
2019-02-21T08:25:21.666Z,21.10
2019-02-21T08:28:03.724Z,19.95
2019-02-21T08:30:44.750Z,21.05
2019-02-21T08:36:33.353Z,20.90
2019-02-21T08:39:14.296Z,20.03
2019-02-21T08:41:55.382Z,20.65
2019-02-21T08:44:36.389Z,19.80
2019-02-21T08:47:18.037Z,20.20
2019-02-21T08:49:59.719Z,20.10
2019-02-21T08:52:41.100Z,20.93
2019-02-21T08:55:22.327Z,19.90
2019-02-21T08:58:04.341Z,19.90
2019-02-21T09:03:24.753Z,21.63
2019-02-21T09:06:06.449Z,21.73
2019-02-21T09:08:48.416Z,21.23
2019-02-21T09:11:29.717Z,21.50
2019-02-21T09:14:13.975Z,22.40
2019-02-21T09:16:55.371Z,22.77
2019-02-21T09:19:36.884Z,21.67
2019-02-21T09:22:18.414Z,20.17
2019-02-21T09:25:02.662Z,20.30
2019-02-21T09:27:43.513Z,20.37
2019-02-21T09:30:24.611Z,21.40
2019-02-21T09:33:17.018Z,20.37
2019-02-21T09:35:51.783Z,21.10
2019-02-21T09:38:35.971Z,20.37
2019-02-21T09:41:18.655Z,20.93
2019-02-21T09:43:59.733Z,22.30
2019-02-21T09:46:41.400Z,19.70
2019-02-21T09:49:22.031Z,19.20
2019-02-21T09:52:10.231Z,19.40
2019-02-21T09:54:52.949Z,21.40
2019-02-21T09:57:34.120Z,21.57
2019-02-21T10:00:15.033Z,21.00
2019-02-21T10:02:56.787Z,21.30
2019-02-21T10:05:37.605Z,20.37
2019-02-21T10:08:18.585Z,20.80
2019-02-21T10:11:02.945Z,21.30
2019-02-21T10:13:44.545Z,19.60
2019-02-21T10:16:25.717Z,16.80
2019-02-21T10:19:07.285Z,20.10
2019-02-21T10:21:47.764Z,19.13
2019-02-21T10:24:28.707Z,19.40
2019-02-21T10:27:13.684Z,20.40
2019-02-21T10:29:54.754Z,20.95
2019-02-21T10:32:38.763Z,21.00
2019-02-21T10:35:19.818Z,20.80
2019-02-21T10:38:01.502Z,20.17
2019-02-21T10:40:42.792Z,21.37
2019-02-21T10:43:23.638Z,21.13
2019-02-21T10:46:04.884Z,20.00
2019-02-21T10:48:46.302Z,22.07
2019-02-21T10:51:28.232Z,20.00
2019-02-21T10:54:09.531Z,20.77
2019-02-21T10:56:51.215Z,19.93
2019-02-21T10:59:32.511Z,21.23
2019-02-21T11:02:13.589Z,20.40
2019-02-21T11:04:55.278Z,20.03
2019-02-21T11:07:36.882Z,20.20
2019-02-21T11:10:19.184Z,19.45
2019-02-21T11:13:00.904Z,20.67
2019-02-21T11:15:42.397Z,18.17
2019-02-21T11:18:23.583Z,21.00
2019-02-21T11:21:04.622Z,18.80
2019-02-21T11:23:46.079Z,18.43
2019-02-21T11:26:27.789Z,20.00
2019-02-21T11:29:08.527Z,20.70
2019-02-21T11:31:50.137Z,17.70
2019-02-21T11:34:30.893Z,18.80
2019-02-21T11:37:12.227Z,19.50
2019-02-21T11:39:56.825Z,18.50
2019-02-21T11:42:38.255Z,17.50
2019-02-21T11:45:19.716Z,17.40
2019-02-21T11:48:00.933Z,17.65
2019-02-21T11:50:42.064Z,17.50
2019-02-21T11:53:23.576Z,17.53
2019-02-21T11:56:04.957Z,18.07
2019-02-21T11:58:46.634Z,16.57
2019-02-21T12:01:28.092Z,16.30
2019-02-21T12:07:12.829Z,17.30
2019-02-21T12:09:57.239Z,17.20
2019-02-21T12:12:37.642Z,16.33
2019-02-21T12:15:18.956Z,17.53
2019-02-21T12:18:03.636Z,18.87
2019-02-21T12:20:47.966Z,18.83
2019-02-21T12:23:29.458Z,20.70
2019-02-21T12:26:10.631Z,19.50
2019-02-21T12:28:52.220Z,21.40
2019-02-21T12:31:37.281Z,20.40
2019-02-21T12:34:18.809Z,21.80
2019-02-21T12:37:00.660Z,19.40
2019-02-21T12:39:41.791Z,20.20
2019-02-21T12:42:23.347Z,21.60
2019-02-21T12:45:04.838Z,21.10
2019-02-21T12:47:50.620Z,19.65
2019-02-21T12:50:29.510Z,20.20
2019-02-21T13:32:53.887Z,17.33
2019-02-21T13:35:35.304Z,17.60
2019-02-21T13:38:16.865Z,19.47
2019-02-21T13:40:58.701Z,17.40
2019-02-21T13:43:40.263Z,18.27
2019-02-21T13:46:21.712Z,19.20
2019-02-21T13:49:03.089Z,17.23
2019-02-21T13:54:29.041Z,18.80
2019-02-21T13:57:09.762Z,17.83
2019-02-21T13:59:51.222Z,17.67
2019-02-21T14:02:34.067Z,18.20
2019-02-21T14:05:15.532Z,17.00
2019-02-21T14:07:57.063Z,17.53
2019-02-21T14:10:38.433Z,17.87
2019-02-21T14:13:22.034Z,17.47
2019-02-21T14:16:04.144Z,17.10
2019-02-21T14:18:48.007Z,18.17
2019-02-21T14:21:28.741Z,18.50
2019-02-21T14:24:10.926Z,16.80
2019-02-21T14:26:51.901Z,16.57
2019-02-21T14:29:39.171Z,16.00
2019-02-21T14:32:16.882Z,17.37
2019-02-21T14:37:43.967Z,17.27
2019-02-21T14:40:25.532Z,17.03
2019-02-21T14:43:06.753Z,16.83
2019-02-21T14:45:48.228Z,15.60
2019-02-21T14:48:29.937Z,15.43
2019-02-21T14:53:59.353Z,15.77
2019-02-21T14:56:41.144Z,17.13
2019-02-21T14:59:22.599Z,16.37
2019-02-21T15:02:06.118Z,16.07
2019-02-21T15:04:46.950Z,15.77
2019-02-21T15:07:27.948Z,15.80
2019-02-21T15:10:09.022Z,16.50
2019-02-21T15:15:34.389Z,16.10
2019-02-21T15:18:15.971Z,15.63
2019-02-21T15:20:57.471Z,17.97
2019-02-21T15:23:38.679Z,17.33
2019-02-21T15:26:19.869Z,16.87
2019-02-21T15:29:00.910Z,16.47
2019-02-21T15:31:42.273Z,17.23
2019-02-21T15:34:23.235Z,17.40
2019-02-21T15:37:07.667Z,18.37
2019-02-21T15:42:34.249Z,19.10
2019-02-21T15:48:07.781Z,19.43
2019-02-21T15:53:33.750Z,17.60
2019-02-21T15:58:59.175Z,18.13
2019-02-21T16:04:28.998Z,18.20
2019-02-21T16:07:10.606Z,18.10
2019-02-21T16:09:52.447Z,16.13
2019-02-21T16:12:34.841Z,16.10
2019-02-21T16:15:17.084Z,16.80
2019-02-21T16:20:42.700Z,16.67
2019-02-21T16:23:23.541Z,16.33
2019-02-21T16:26:07.629Z,19.03
2019-02-21T16:28:48.805Z,17.77
2019-02-21T16:31:31.131Z,16.97
2019-02-21T16:34:11.778Z,18.67
2019-02-21T16:37:02.151Z,17.93
2019-02-21T16:39:37.514Z,18.60
2019-02-21T16:42:18.264Z,17.80
2019-02-21T16:47:41.328Z,17.57
2019-02-21T16:50:29.888Z,17.77
2019-02-21T16:53:04.994Z,20.27
2019-02-21T16:55:46.375Z,18.80
2019-02-21T16:58:27.948Z,20.23
2019-02-21T17:01:09.389Z,19.40
2019-02-21T17:03:49.694Z,20.70
2019-02-21T17:06:33.378Z,18.67
2019-02-21T17:09:15.029Z,21.10
2019-02-21T17:11:56.933Z,20.00
2019-02-21T17:14:39.309Z,20.07
2019-02-21T17:17:20.367Z,18.33
2019-02-21T17:20:01.857Z,18.57
2019-02-21T17:22:43.174Z,18.33
2019-02-21T17:25:23.894Z,18.00
2019-02-21T17:28:04.784Z,17.23
2019-02-21T17:33:31.817Z,19.43
2019-02-21T17:36:13.402Z,18.43
2019-02-21T17:38:55.152Z,19.07
2019-02-21T17:41:36.553Z,18.20
2019-02-21T17:44:18.305Z,18.20
2019-02-21T17:46:59.774Z,18.80
2019-02-21T17:49:40.690Z,19.87
2019-02-21T17:52:25.252Z,17.83
2019-02-21T17:55:06.433Z,18.10
2019-02-21T17:57:50.900Z,18.90
2019-02-21T18:00:36.407Z,19.13
2019-02-21T18:03:17.821Z,19.37
2019-02-21T18:05:59.915Z,20.80
2019-02-21T18:08:41.159Z,20.80
2019-02-21T18:11:22.085Z,21.37
2019-02-21T18:14:04.315Z,23.70
2019-02-21T18:16:45.614Z,24.50
2019-02-21T18:19:26.337Z,25.00
2019-02-21T18:24:51.683Z,27.50
2019-02-21T18:27:32.556Z,28.30
2019-02-21T18:30:13.412Z,27.10
2019-02-21T18:32:54.608Z,30.00
2019-02-21T18:35:36.202Z,33.20
2019-02-21T18:38:18.424Z,30.33
2019-02-21T18:40:59.115Z,30.93
2019-02-21T18:43:40.357Z,29.17
2019-02-21T18:46:22.141Z,31.43
2019-02-21T18:51:47.285Z,32.80
2019-02-21T19:00:11.282Z,33.37
2019-02-21T19:05:50.161Z,35.77
2019-02-21T19:08:35.012Z,36.70
2019-02-21T19:11:15.831Z,37.50
2019-02-21T19:13:57.258Z,35.30
2019-02-21T19:16:38.520Z,33.87
2019-02-21T19:19:20.137Z,36.57
2019-02-21T19:22:04.697Z,39.50
2019-02-21T19:24:46.551Z,38.87
2019-02-21T19:27:36.833Z,38.77
2019-02-21T19:30:14.196Z,39.90
2019-02-21T19:32:57.404Z,34.97
2019-02-21T19:35:41.746Z,39.40
2019-02-21T19:41:09.834Z,41.40
2019-02-21T19:43:51.414Z,43.17
2019-02-21T19:46:36.073Z,44.10
2019-02-21T19:49:17.465Z,40.90
2019-02-21T19:52:00.972Z,41.00
2019-02-21T19:54:42.984Z,41.50
2019-02-21T19:57:26.002Z,40.23
2019-02-21T20:00:08.468Z,40.20
2019-02-21T20:02:49.824Z,41.67
2019-02-21T20:05:33.708Z,40.90
2019-02-21T20:08:21.494Z,42.10
2019-02-21T20:11:00.171Z,39.40
2019-02-21T20:13:45.563Z,42.53
2019-02-21T20:16:26.274Z,41.70
2019-02-21T20:19:07.952Z,41.97
2019-02-21T20:21:49.327Z,42.67
2019-02-21T20:24:30.913Z,38.57
2019-02-21T20:27:12.628Z,41.00
2019-02-21T20:29:53.678Z,41.53
2019-02-21T20:32:34.464Z,41.23
2019-02-21T20:35:15.190Z,41.77
2019-02-21T20:37:56.566Z,43.67
2019-02-21T20:40:37.964Z,43.37
2019-02-21T20:46:38.633Z,41.40
2019-02-21T20:49:19.638Z,41.00
2019-02-21T20:52:00.765Z,40.60
2019-02-21T20:54:41.740Z,36.70
2019-02-21T20:57:10.847Z,39.17
2019-02-21T21:00:18.873Z,41.55
2019-02-21T21:03:06.792Z,38.15
2019-02-21T21:05:55.071Z,41.00
2019-02-21T21:08:46.595Z,38.27
2019-02-21T21:11:33.026Z,39.53
2019-02-21T21:14:21.322Z,39.90
2019-02-21T21:17:02.532Z,41.83
2019-02-21T21:19:47.498Z,40.87
2019-02-21T21:25:15.947Z,43.00
2019-02-21T21:27:57.380Z,40.60
2019-02-21T21:30:39.083Z,42.30
2019-02-21T21:33:20.022Z,35.87
2019-02-21T21:36:01.585Z,45.33
2019-02-21T21:38:53.434Z,45.77
2019-02-21T21:41:26.492Z,44.20
2019-02-21T21:47:20.975Z,46.07
2019-02-21T21:50:02.095Z,46.87
2019-02-21T21:52:43.301Z,46.47
2019-02-21T21:58:09.055Z,49.60
2019-02-21T22:00:50.663Z,49.57
2019-02-21T22:03:32.249Z,47.43
2019-02-21T22:06:13.586Z,45.43
2019-02-21T22:09:04.466Z,43.80
2019-02-21T22:11:37.761Z,43.60
2019-02-21T22:14:19.339Z,42.27
2019-02-21T22:17:00.606Z,39.93
2019-02-21T22:19:42.063Z,42.97
2019-02-21T22:22:24.408Z,41.43
2019-02-21T22:25:05.760Z,41.83
2019-02-21T22:27:47.387Z,41.77
2019-02-21T22:30:28.583Z,38.97
2019-02-21T22:33:16.203Z,36.27
2019-02-21T22:35:57.284Z,44.27
2019-02-21T22:38:38.666Z,39.30
2019-02-21T22:41:19.614Z,41.33
2019-02-21T22:44:00.607Z,42.10
2019-02-21T22:46:45.296Z,39.93
2019-02-21T22:49:26.399Z,36.93
2019-02-21T22:52:08.113Z,40.03
2019-02-21T22:54:49.659Z,39.93
2019-02-21T22:57:30.733Z,36.70
2019-02-21T23:00:11.795Z,37.53
2019-02-21T23:02:52.751Z,35.93
2019-02-21T23:05:34.014Z,35.10
2019-02-21T23:08:16.462Z,37.50
2019-02-21T23:10:57.323Z,37.07
2019-02-21T23:13:38.117Z,40.07
2019-02-21T23:19:03.602Z,38.87
2019-02-21T23:21:43.818Z,37.30
2019-02-21T23:24:25.315Z,37.00
2019-02-21T23:27:06.667Z,38.37
2019-02-21T23:29:48.168Z,37.93
2019-02-21T23:32:33.782Z,40.30
2019-02-21T23:35:17.201Z,42.17
2019-02-21T23:40:43.395Z,41.00
2019-02-21T23:43:25.017Z,49.43
2019-02-21T23:49:13.936Z,45.37
2019-02-21T23:51:56.031Z,44.30
2019-02-21T23:57:21.124Z,48.67
